Time;durP1;ratioP1;P1;durP2;ratioP2;P2;SDS_P1;SDS_P2;PMS_P1;PMS_P2;Temp;Humidity;BMP_temperature;BMP_pressure;BME280_temperature;BME280_humidity;BME280_pressure;Samples;Min_cycle;Max_cycle;Signal;HPM_P1;HPM_P2
2021/06/25 00:01:34;;;;;;;;;;;;;;;;;;5006220;28;20016;-81
2021/06/25 00:04:02;;;;;;;;;;;;;;;;;;5006397;28;19926;-81
2021/06/25 00:06:29;;;;;;;;;;;;;;;;;;5006509;28;20025;-80
2021/06/25 00:08:56;;;;;;;;;;;;;;;;;;5006172;28;19965;-80
2021/06/25 00:11:23;;;;;;;;;;;;;;;;;;4988674;28;20504;-81
2021/06/25 00:13:50;;;;;;;;;;;;;;;;;;5041703;28;19969;-80
2021/06/25 00:16:17;;;;;;;;;;;;;;;;;;5013133;28;20441;-80
2021/06/25 00:18:44;;;;;;;;;;;;;;;;;;5050671;28;19947;-80
2021/06/25 00:21:11;;;;;;;;;;;;;;;;;;4991127;28;19968;-81
2021/06/25 00:23:39;;;;;;;;;;;;;;;;;;5005770;28;20345;-81
2021/06/25 00:26:06;;;;;;;;;;;;;;;;;;5012285;28;19949;-81
2021/06/25 00:28:33;;;;;;;;;;;;;;;;;;5010157;28;19960;-80
2021/06/25 00:31:00;;;;;;;;;;;;;;;;;;5009786;28;20408;-80
2021/06/25 00:33:27;;;;;;;;;;;;;;;;;;5010199;28;20377;-80
2021/06/25 00:35:54;;;;;;;;;;;;;;;;;;5010615;28;19925;-81
2021/06/25 00:38:21;;;;;;;;;;;;;;;;;;5009875;28;20021;-81
2021/06/25 00:40:49;;;;;;;;;;;;;;;;;;5010266;28;19953;-81
2021/06/25 00:43:16;;;;;;;;;;;;;;;;;;5010744;28;20004;-81
2021/06/25 00:45:45;;;;;;;;;;;;;;;;;;5010515;28;20008;-81
2021/06/25 00:48:12;;;;;;;;;;;;;;;;;;4992661;28;19957;-81
2021/06/25 00:50:39;;;;;;;;;;;;;;;;;;5010290;28;19979;-81
2021/06/25 00:53:06;;;;;;;;;;;;;;;;;;5054024;28;20008;-81
2021/06/25 00:55:43;;;;;;;;;;;;;;;;;;5078009;28;20016;-82
2021/06/25 00:58:10;;;;;;;;;;;;;;;;;;4990670;28;20626;-81
2021/06/25 01:00:37;;;;;;;;;;;;;;;;;;5005974;28;19984;-81
2021/06/25 01:03:04;;;;;;;;;;;;;;;;;;5077409;28;19973;-81
2021/06/25 01:05:31;;;;;;;;;;;;;;;;;;5009588;28;20015;-81
2021/06/25 01:07:58;;;;;;;;;;;;;;;;;;5010476;28;20008;-82
2021/06/25 01:10:25;;;;;;;;;;;;;;;;;;5010607;28;20699;-81
2021/06/25 01:12:53;;;;;;;;;;;;;;;;;;5010223;28;19966;-81
2021/06/25 01:15:20;;;;;;;;;;;;;;;;;;5009964;28;19991;-81
2021/06/25 01:17:47;;;;;;;;;;;;;;;;;;5003787;28;20441;-81
2021/06/25 01:20:14;;;;;;;;;;;;;;;;;;5005457;28;20040;-81
2021/06/25 01:22:42;;;;;;;;;;;;;;;;;;5067259;28;19957;-81
2021/06/25 01:25:09;;;;;;;;;;;;;;;;;;5077571;28;19964;-81
2021/06/25 01:27:36;;;;;;;;;;;;;;;;;;5010240;28;20008;-81
2021/06/25 01:30:03;;;;;;;;;;;;;;;;;;4994266;28;20013;-81
2021/06/25 01:32:30;;;;;;;;;;;;;;;;;;5077603;28;19921;-81
2021/06/25 01:34:57;;;;;;;;;;;;;;;;;;5076747;28;19951;-80
2021/06/25 01:37:26;;;;;;;;;;;;;;;;;;5074554;28;20606;-81
2021/06/25 01:39:53;;;;;;;;;;;;;;;;;;5049749;28;19965;-81
2021/06/25 01:42:20;;;;;;;;;;;;;;;;;;5009298;28;19986;-81
2021/06/25 01:44:47;;;;;;;;;;;;;;;;;;5009336;28;20004;-80
2021/06/25 01:47:14;;;;;;;;;;;;;;;;;;4991534;28;19980;-80
2021/06/25 01:49:41;;;;;;;;;;;;;;;;;;5009229;28;20488;-80
2021/06/25 01:52:09;;;;;;;;;;;;;;;;;;5009497;28;19975;-80
2021/06/25 01:54:36;;;;;;;;;;;;;;;;;;5008749;28;20547;-80
2021/06/25 01:57:03;;;;;;;;;;;;;;;;;;5015959;28;19921;-80
2021/06/25 01:59:30;;;;;;;;;;;;;;;;;;5057798;28;19965;-81
2021/06/25 02:01:57;;;;;;;;;;;;;;;;;;5009203;28;19971;-81
2021/06/25 02:04:24;;;;;;;;;;;;;;;;;;5073031;28;20662;-80
2021/06/25 02:06:51;;;;;;;;;;;;;;;;;;5009504;28;19968;-80
2021/06/25 02:09:18;;;;;;;;;;;;;;;;;;5011022;28;20003;-80
2021/06/25 02:11:46;;;;;;;;;;;;;;;;;;5007863;28;20017;-81
2021/06/25 02:14:13;;;;;;;;;;;;;;;;;;5008176;28;19976;-80
2021/06/25 02:16:40;;;;;;;;;;;;;;;;;;5008598;28;19960;-80
2021/06/25 02:19:07;;;;;;;;;;;;;;;;;;5008175;28;19933;-80
2021/06/25 02:21:34;;;;;;;;;;;;;;;;;;5007047;28;19973;-80
2021/06/25 02:24:01;;;;;;;;;;;;;;;;;;5006293;28;20008;-80
2021/06/25 02:26:28;;;;;;;;;;;;;;;;;;5007377;28;19972;-79
2021/06/25 02:28:55;;;;;;;;;;;;;;;;;;5003549;28;20016;-80
2021/06/25 02:31:23;;;;;;;;;;;;;;;;;;5004076;28;20536;-80
2021/06/25 02:33:50;;;;;;;;;;;;;;;;;;5006984;28;19930;-80
2021/06/25 02:36:18;;;;;;;;;;;;;;;;;;5057697;28;19973;-80
2021/06/25 02:38:45;;;;;;;;;;;;;;;;;;5007891;28;19975;-80
2021/06/25 02:41:12;;;;;;;;;;;;;;;;;;5007771;28;20796;-80
2021/06/25 02:43:39;;;;;;;;;;;;;;;;;;5007319;28;19957;-79
2021/06/25 02:46:06;;;;;;;;;;;;;;;;;;5006888;28;20333;-80
2021/06/25 02:48:33;;;;;;;;;;;;;;;;;;5007310;28;19960;-80
2021/06/25 02:51:00;;;;;;;;;;;;;;;;;;5007060;28;20012;-80
2021/06/25 02:53:27;;;;;;;;;;;;;;;;;;5073544;28;19928;-80
2021/06/25 02:55:54;;;;;;;;;;;;;;;;;;5016420;28;19928;-80
2021/06/25 02:58:23;;;;;;;;;;;;;;;;;;5074245;28;20004;-80
2021/06/25 03:00:50;;;;;;;;;;;;;;;;;;5031179;28;20004;-80
2021/06/25 03:03:17;;;;;;;;;;;;;;;;;;5006661;28;20412;-80
2021/06/25 03:05:44;;;;;;;;;;;;;;;;;;4989656;28;20091;-80
2021/06/25 03:08:11;;;;;;;;;;;;;;;;;;5007744;28;20004;-81
2021/06/25 03:10:38;;;;;;;;;;;;;;;;;;5020677;28;19925;-81
2021/06/25 03:13:05;;;;;;;;;;;;;;;;;;5008420;28;20008;-81
2021/06/25 03:15:32;;;;;;;;;;;;;;;;;;5008819;28;19921;-81
2021/06/25 03:17:59;;;;;;;;;;;;;;;;;;5076081;28;20008;-82
2021/06/25 03:20:27;;;;;;;;;;;;;;;;;;5073540;28;20019;-81
2021/06/25 03:22:54;;;;;;;;;;;;;;;;;;5008421;28;20615;-81
2021/06/25 03:25:21;;;;;;;;;;;;;;;;;;5008090;28;19955;-80
2021/06/25 03:27:48;;;;;;;;;;;;;;;;;;5076008;28;19961;-81
2021/06/25 03:30:15;;;;;;;;;;;;;;;;;;5075562;28;20012;-81
2021/06/25 03:32:42;;;;;;;;;;;;;;;;;;5005032;28;20007;-81
2021/06/25 03:35:10;;;;;;;;;;;;;;;;;;4990271;28;19925;-81
2021/06/25 03:37:39;;;;;;;;;;;;;;;;;;5007843;28;20348;-81
2021/06/25 03:40:06;;;;;;;;;;;;;;;;;;5007056;28;19968;-80
2021/06/25 03:42:33;;;;;;;;;;;;;;;;;;5007326;28;20032;-81
2021/06/25 03:45:00;;;;;;;;;;;;;;;;;;5051899;28;20051;-81
2021/06/25 03:47:28;;;;;;;;;;;;;;;;;;5007809;28;20004;-81
2021/06/25 03:49:55;;;;;;;;;;;;;;;;;;5007039;28;19971;-81
2021/06/25 03:52:22;;;;;;;;;;;;;;;;;;5006956;28;20017;-81
2021/06/25 03:54:51;;;;;;;;;;;;;;;;;;4989312;28;20378;-81
2021/06/25 03:57:18;;;;;;;;;;;;;;;;;;5007423;28;20004;-81
2021/06/25 03:59:45;;;;;;;;;;;;;;;;;;4990629;28;20008;-81
2021/06/25 04:02:12;;;;;;;;;;;;;;;;;;5006204;28;19957;-81
2021/06/25 04:04:39;;;;;;;;;;;;;;;;;;5023337;28;20016;-82
2021/06/25 04:07:09;;;;;;;;;;;;;;;;;;5007525;28;19929;-81
2021/06/25 04:09:36;;;;;;;;;;;;;;;;;;5005231;28;20439;-81
2021/06/25 04:12:03;;;;;;;;;;;;;;;;;;5018221;28;19925;-80
2021/06/25 04:14:31;;;;;;;;;;;;;;;;;;5006676;28;19961;-81
2021/06/25 04:16:58;;;;;;;;;;;;;;;;;;5038360;28;19931;-81
2021/06/25 04:19:25;;;;;;;;;;;;;;;;;;5006111;28;19971;-81
2021/06/25 04:21:52;;;;;;;;;;;;;;;;;;5006962;28;19960;-81
2021/06/25 04:24:19;;;;;;;;;;;;;;;;;;5006790;28;19925;-81
2021/06/25 04:26:47;;;;;;;;;;;;;;;;;;4994147;28;19960;-81
2021/06/25 04:29:15;;;;;;;;;;;;;;;;;;4996006;28;20017;-81
2021/06/25 04:31:47;;;;;;;;;;;;;;;;;;5006006;28;20007;-81
2021/06/25 04:34:15;;;;;;;;;;;;;;;;;;5019076;28;19921;-81
2021/06/25 04:36:46;;;;;;;;;;;;;;;;;;5002548;28;19921;-81
2021/06/25 04:39:13;;;;;;;;;;;;;;;;;;5043793;28;19968;-81
2021/06/25 04:41:40;;;;;;;;;;;;;;;;;;5036423;28;20305;-81
2021/06/25 04:44:07;;;;;;;;;;;;;;;;;;5063462;28;19965;-81
2021/06/25 04:46:34;;;;;;;;;;;;;;;;;;5005856;28;20008;-81
2021/06/25 04:49:02;;;;;;;;;;;;;;;;;;5006784;28;20381;-81
2021/06/25 04:51:29;;;;;;;;;;;;;;;;;;5005101;28;19925;-82
2021/06/25 04:56:32;;;;;;;;;;;;;;;;;;5006527;28;20024;-80
2021/06/25 04:58:59;;;;;;;;;;;;;;;;;;5005960;28;19954;-81
2021/06/25 05:01:26;;;;;;;;;;;;;;;;;;5017818;28;19929;-81
2021/06/25 05:03:53;;;;;;;;;;;;;;;;;;5074311;28;20020;-79
2021/06/25 05:06:20;;;;;;;;;;;;;;;;;;4994756;28;20022;-81
2021/06/25 05:08:48;;;;;;;;;;;;;;;;;;5005190;28;19964;-80
2021/06/25 05:11:15;;;;;;;;;;;;;;;;;;5006677;28;19974;-85
2021/06/25 05:13:42;;;;;;;;;;;;;;;;;;5010117;28;19936;-84
2021/06/25 05:16:09;;;;;;;;;;;;;;;;;;5078368;28;20002;-84
2021/06/25 05:18:36;;;;;;;;;;;;;;;;;;4998348;28;19921;-83
2021/06/25 05:21:18;;;;;;;;;;;;;;;;;;4994605;28;19926;-84
2021/06/25 05:23:49;;;;;;;;;;;;;;;;;;5010078;28;20016;-84
2021/06/25 05:26:16;;;;;;;;;;;;;;;;;;5069602;28;20000;-80
2021/06/25 05:28:43;;;;;;;;;;;;;;;;;;5001805;28;20540;-82
2021/06/25 05:31:10;;;;;;;;;;;;;;;;;;5029365;28;19975;-82
2021/06/25 05:33:37;;;;;;;;;;;;;;;;;;5064695;28;19921;-83
2021/06/25 05:36:05;;;;;;;;;;;;;;;;;;4992767;28;19957;-83
2021/06/25 05:38:32;;;;;;;;;;;;;;;;;;5020288;28;19957;-82
2021/06/25 05:40:59;;;;;;;;;;;;;;;;;;5004170;28;20019;-82
2021/06/25 05:43:26;;;;;;;;;;;;;;;;;;5003816;28;20689;-82
2021/06/25 05:45:53;;;;;;;;;;;;;;;;;;5031195;28;20073;-81
2021/06/25 05:48:20;;;;;;;;;;;;;;;;;;5077910;28;19921;-82
2021/06/25 05:50:47;;;;;;;;;;;;;;;;;;5088487;22;19978;-81
2021/06/25 05:53:14;;;;;;;;;;;;;;;;;;5071845;28;19999;-81
2021/06/25 05:55:42;;;;;;;;;;;;;;;;;;5072341;28;19920;-82
2021/06/25 05:58:09;;;;;;;;;;;;;;;;;;5072499;28;19926;-81
2021/06/25 06:00:36;;;;;;;;;;;;;;;;;;5089012;28;20014;-82
2021/06/25 06:03:03;;;;;;;;;;;;;;;;;;5093455;28;19920;-81
2021/06/25 06:05:33;;;;;;;;;;;;;;;;;;5085848;28;20036;-81
2021/06/25 06:08:01;;;;;;;;;;;;;;;;;;5088282;28;19959;-81
2021/06/25 06:10:30;;;;;;;;;;;;;;;;;;5079726;28;20015;-81
2021/06/25 06:12:58;;;;;;;;;;;;;;;;;;5057621;28;19920;-81
2021/06/25 06:15:25;;;;;;;;;;;;;;;;;;5072865;28;20487;-82
2021/06/25 06:17:53;;;;;;;;;;;;;;;;;;5072898;28;20011;-81
2021/06/25 06:20:22;;;;;;;;;;;;;;;;;;5071481;28;19975;-81
2021/06/25 06:33:41;;;;;;;;;;;;;;;;;;5092750;28;19920;-81
2021/06/25 06:36:11;;;;;;;;;;;;;;;;;;5092318;28;19982;-82
2021/06/25 06:38:38;;;;;;;;;;;;;;;;;;5091993;28;20030;-81
2021/06/25 06:41:05;;;;;;;;;;;;;;;;;;5091870;28;20015;-81
2021/06/25 06:43:34;;;;;;;;;;;;;;;;;;5092781;28;19985;-82
2021/06/25 06:46:01;;;;;;;;;;;;;;;;;;5091566;28;19999;-81
2021/06/25 06:48:28;;;;;;;;;;;;;;;;;;5091602;28;19920;-81
2021/06/25 06:50:55;;;;;;;;;;;;;;;;;;5075598;28;19963;-81
2021/06/25 06:53:22;;;;;;;;;;;;;;;;;;5072277;28;20019;-81
2021/06/25 06:55:49;;;;;;;;;;;;;;;;;;5054722;28;19966;-82
2021/06/25 06:58:17;;;;;;;;;;;;;;;;;;5054721;28;20019;-81
2021/06/25 07:00:44;;;;;;;;;;;;;;;;;;5072503;28;20015;-82
2021/06/25 07:05:56;;;;;;;;;;;;;;;;;;5072330;28;19964;-81
2021/06/25 07:08:24;;;;;;;;;;;;;;;;;;5072063;28;20011;-82
2021/06/25 07:10:51;;;;;;;;;;;;;;;;;;5072183;28;20396;-81
2021/06/25 07:13:18;;;;;;;;;;;;;;;;;;5054471;28;19967;-82
2021/06/25 07:15:49;;;;;;;;;;;;;;;;;;5054050;28;20019;-82
2021/06/25 07:18:16;;;;;;;;;;;;;;;;;;5072123;28;20292;-81
2021/06/25 07:20:43;;;;;;;;;;;;;;;;;;5071783;28;20630;-82
2021/06/25 07:23:10;;;;;;;;;;;;;;;;;;5054729;28;20015;-81
2021/06/25 07:25:37;;;;;;;;;;;;;;;;;;5072052;28;19995;-83
2021/06/25 07:28:06;;;;;;;;;;;;;;;;;;5074161;28;19966;-83
2021/06/25 07:30:33;;;;;;;;;;;;;;;;;;5073964;28;19986;-83
2021/06/25 07:33:00;;;;;;;;;;;;;;;;;;5062447;28;19928;-83
2021/06/25 07:35:27;;;;;;;;;;;;;;;;;;5070787;28;20016;-83
2021/06/25 07:37:54;;;;;;;;;;;;;;;;;;5072333;28;19963;-83
2021/06/25 07:40:21;;;;;;;;;;;;;;;;;;5061099;28;20416;-82
2021/06/25 07:42:49;;;;;;;;;;;;;;;;;;5054305;28;19967;-83
2021/06/25 07:45:16;;;;;;;;;;;;;;;;;;5071794;28;19964;-83
2021/06/25 07:47:43;;;;;;;;;;;;;;;;;;5054352;28;19963;-82
2021/06/25 07:50:10;;;;;;;;;;;;;;;;;;5071492;28;20035;-82
2021/06/25 07:52:37;;;;;;;;;;;;;;;;;;5054237;28;20374;-83
2021/06/25 07:55:04;;;;;;;;;;;;;;;;;;5071585;28;19968;-83
2021/06/25 07:57:31;;;;;;;;;;;;;;;;;;5053972;28;19963;-83
2021/06/25 07:59:58;;;;;;;;;;;;;;;;;;5071761;28;19960;-83
2021/06/25 08:02:25;;;;;;;;;;;;;;;;;;5074214;28;20444;-83
2021/06/25 08:04:53;;;;;;;;;;;;;;;;;;5052849;28;19959;-82
2021/06/25 08:07:21;;;;;;;;;;;;;;;;;;5071923;28;19921;-82
2021/06/25 08:10:03;;;;;;;;;;;;;;;;;;5071515;28;19967;-82
2021/06/25 08:12:31;;;;;;;;;;;;;;;;;;5072565;28;19975;-83
2021/06/25 08:14:58;;;;;;;;;;;;;;;;;;5073609;28;19924;-83
2021/06/25 08:17:25;;;;;;;;;;;;;;;;;;5073307;28;19926;-83
2021/06/25 08:19:52;;;;;;;;;;;;;;;;;;5033884;28;20023;-83
2021/06/25 08:22:19;;;;;;;;;;;;;;;;;;5051770;28;19970;-83
2021/06/25 08:24:47;;;;;;;;;;;;;;;;;;5051078;28;19924;-82
2021/06/25 08:27:18;;;;;;;;;;;;;;;;;;5051648;28;19921;-82
2021/06/25 08:29:45;;;;;;;;;;;;;;;;;;5088665;28;19920;-82
2021/06/25 08:32:12;;;;;;;;;;;;;;;;;;5091038;28;19962;-82
2021/06/25 08:34:39;;;;;;;;;;;;;;;;;;5072729;28;19998;-83
2021/06/25 08:37:07;;;;;;;;;;;;;;;;;;5090701;28;20010;-82
2021/06/25 08:39:34;;;;;;;;;;;;;;;;;;5055836;28;20003;-82
2021/06/25 08:42:04;;;;;;;;;;;;;;;;;;5053218;28;19927;-83
2021/06/25 08:44:32;;;;;;;;;;;;;;;;;;5053500;28;19985;-82
2021/06/25 08:46:59;;;;;;;;;;;;;;;;;;5073735;28;19951;-82
2021/06/25 08:49:26;;;;;;;;;;;;;;;;;;5073576;28;20010;-83
2021/06/25 08:51:53;;;;;;;;;;;;;;;;;;5077041;28;19967;-82
2021/06/25 08:54:21;;;;;;;;;;;;;;;;;;5076693;28;19984;-83
2021/06/25 08:56:48;;;;;;;;;;;;;;;;;;5076069;28;20003;-82
2021/06/25 08:59:19;;;;;;;;;;;;;;;;;;5094101;28;19966;-83
2021/06/25 09:01:47;;;;;;;;;;;;;;;;;;5089511;28;19966;-83
2021/06/25 09:04:14;;;;;;;;;;;;;;;;;;5060395;28;19953;-82
2021/06/25 09:06:41;;;;;;;;;;;;;;;;;;5056183;28;20023;-83
2021/06/25 09:09:09;;;;;;;;;;;;;;;;;;5055672;28;19967;-82
2021/06/25 09:11:37;;;;;;;;;;;;;;;;;;5067555;28;20003;-82
2021/06/25 09:14:04;;;;;;;;;;;;;;;;;;5056893;28;20050;-82
2021/06/25 09:16:31;;;;;;;;;;;;;;;;;;5074945;28;19924;-83
2021/06/25 09:18:58;;;;;;;;;;;;;;;;;;5075005;28;19930;-82
2021/06/25 09:21:26;;;;;;;;;;;;;;;;;;5075182;28;19989;-82
2021/06/25 09:23:53;;;;;;;;;;;;;;;;;;5069675;28;19970;-83
2021/06/25 09:26:26;;;;;;;;;;;;;;;;;;5073417;28;20015;-83
2021/06/25 09:28:53;;;;;;;;;;;;;;;;;;5055094;28;20011;-83
2021/06/25 09:31:28;;;;;;;;;;;;;;;;;;5054689;28;20015;-82
2021/06/25 09:33:55;;;;;;;;;;;;;;;;;;5074192;28;20287;-82
2021/06/25 09:36:22;;;;;;;;;;;;;;;;;;5072658;28;20003;-83
2021/06/25 09:38:49;;;;;;;;;;;;;;;;;;5054848;28;19977;-82
2021/06/25 09:41:17;;;;;;;;;;;;;;;;;;5054631;28;19948;-82
2021/06/25 09:43:50;;;;;;;;;;;;;;;;;;5056252;28;20031;-80
2021/06/25 09:46:17;;;;;;;;;;;;;;;;;;5034992;28;20015;-80
2021/06/25 09:48:44;;;;;;;;;;;;;;;;;;5047750;28;19938;-80
2021/06/25 09:51:17;;;;;;;;;;;;;;;;;;5043932;28;20007;-80
2021/06/25 09:53:45;;;;;;;;;;;;;;;;;;5053510;28;19972;-79
2021/06/25 09:56:12;;;;;;;;;;;;;;;;;;5054482;28;19964;-79
2021/06/25 09:58:45;;;;;;;;;;;;;;;;;;5070721;28;20557;-80
2021/06/25 10:01:24;;;;;;;;;;;;;;;;;;5054508;28;19972;-80
2021/06/25 10:03:52;;;;;;;;;;;;;;;;;;5072536;28;20347;-80
2021/06/25 10:06:19;;;;;;;;;;;;;;;;;;5054621;28;19924;-80
2021/06/25 10:08:47;;;;;;;;;;;;;;;;;;5053823;28;19920;-80
2021/06/25 10:11:14;;;;;;;;;;;;;;;;;;5054496;28;20028;-82
2021/06/25 10:16:17;;;;;;;;;;;;;;;;;;5080614;28;19967;-81
2021/06/25 10:18:44;;;;;;;;;;;;;;;;;;5054490;28;19931;-81
2021/06/25 10:21:11;;;;;;;;;;;;;;;;;;5054577;28;20011;-82
2021/06/25 10:23:39;;;;;;;;;;;;;;;;;;5054063;28;19928;-82
2021/06/25 10:26:11;;;;;;;;;;;;;;;;;;5059530;28;19967;-82
2021/06/25 10:28:39;;;;;;;;;;;;;;;;;;5092039;28;20002;-80
2021/06/25 10:31:06;;;;;;;;;;;;;;;;;;5074144;28;19971;-81
2021/06/25 10:33:33;;;;;;;;;;;;;;;;;;5074021;28;20462;-81
2021/06/25 10:36:00;;;;;;;;;;;;;;;;;;5091933;28;19957;-81
2021/06/25 10:38:27;;;;;;;;;;;;;;;;;;5091769;28;19977;-81
2021/06/25 10:40:55;;;;;;;;;;;;;;;;;;5074084;28;19970;-80
2021/06/25 10:43:22;;;;;;;;;;;;;;;;;;5073907;28;19959;-81
2021/06/25 10:45:49;;;;;;;;;;;;;;;;;;5091620;28;20348;-82
2021/06/25 10:48:18;;;;;;;;;;;;;;;;;;5092238;28;19924;-82
2021/06/25 10:50:45;;;;;;;;;;;;;;;;;;5072951;28;20007;-82
2021/06/25 10:53:13;;;;;;;;;;;;;;;;;;5073572;28;20026;-81
2021/06/25 10:55:46;;;;;;;;;;;;;;;;;;5073840;28;19971;-81
2021/06/25 10:58:16;;;;;;;;;;;;;;;;;;5064221;28;20011;-81
2021/06/25 11:00:43;;;;;;;;;;;;;;;;;;5053616;28;19974;-82
2021/06/25 11:03:10;;;;;;;;;;;;;;;;;;5070575;28;19924;-81
2021/06/25 11:05:39;;;;;;;;;;;;;;;;;;5072734;28;20355;-82
2021/06/25 11:08:06;;;;;;;;;;;;;;;;;;5091738;28;19920;-82
2021/06/25 11:10:33;;;;;;;;;;;;;;;;;;5091382;28;19974;-82
2021/06/25 11:13:01;;;;;;;;;;;;;;;;;;5060815;28;19924;-81
2021/06/25 11:15:28;;;;;;;;;;;;;;;;;;5069742;28;19970;-81
2021/06/25 11:17:55;;;;;;;;;;;;;;;;;;5064357;28;20369;-82
2021/06/25 11:20:23;;;;;;;;;;;;;;;;;;5071146;28;19962;-82
2021/06/25 11:22:50;;;;;;;;;;;;;;;;;;5062732;28;20291;-81
2021/06/25 11:25:20;;;;;;;;;;;;;;;;;;5068188;28;20799;-81
2021/06/25 11:27:47;;;;;;;;;;;;;;;;;;5053371;28;19924;-81
2021/06/25 11:30:14;;;;;;;;;;;;;;;;;;5052600;28;19960;-81
2021/06/25 11:32:41;;;;;;;;;;;;;;;;;;5070893;28;19924;-81
2021/06/25 11:35:08;;;;;;;;;;;;;;;;;;5070271;28;20010;-81
2021/06/25 11:37:35;;;;;;;;;;;;;;;;;;5064167;28;20408;-81
2021/06/25 11:40:03;;;;;;;;;;;;;;;;;;5090773;28;20449;-81
2021/06/25 11:42:30;;;;;;;;;;;;;;;;;;5073190;28;19982;-81
2021/06/25 11:44:57;;;;;;;;;;;;;;;;;;5072698;28;19956;-80
2021/06/25 11:47:27;;;;;;;;;;;;;;;;;;5080470;28;19975;-80
2021/06/25 11:50:03;;;;;;;;;;;;;;;;;;5070330;28;19990;-81
2021/06/25 11:52:30;;;;;;;;;;;;;;;;;;5052291;28;19955;-81
2021/06/25 11:54:57;;;;;;;;;;;;;;;;;;5052552;28;19995;-81
2021/06/25 11:57:29;;;;;;;;;;;;;;;;;;5070559;28;19970;-81
2021/06/25 11:59:56;;;;;;;;;;;;;;;;;;5053630;28;20363;-81
2021/06/25 12:02:23;;;;;;;;;;;;;;;;;;5054008;28;20011;-81
2021/06/25 12:04:51;;;;;;;;;;;;;;;;;;5053056;28;19975;-81
2021/06/25 12:07:18;;;;;;;;;;;;;;;;;;5053613;28;20023;-81
2021/06/25 12:09:45;;;;;;;;;;;;;;;;;;5071659;28;19931;-81
2021/06/25 12:12:12;;;;;;;;;;;;;;;;;;5070030;28;19967;-81
2021/06/25 12:14:39;;;;;;;;;;;;;;;;;;5069654;28;19924;-81
2021/06/25 12:17:06;;;;;;;;;;;;;;;;;;5068177;28;19967;-81
2021/06/25 12:22:44;;;;;;;;;;;;;;;;;;5015880;22;19966;-81
2021/06/25 12:25:15;;;;;;;;;;;;;;;;;;4970720;28;19964;-81
2021/06/25 12:27:45;;;;;;;;;;;;;;;;;;4975608;28;19926;-81
2021/06/25 12:30:13;;;;;;;;;;;;;;;;;;4975882;28;19921;-81
2021/06/25 12:32:42;;;;;;;;;;;;;;;;;;4975513;28;19961;-81
2021/06/25 12:35:09;;;;;;;;;;;;;;;;;;4975094;28;19944;-81
2021/06/25 12:37:37;;;;;;;;;;;;;;;;;;4992697;28;20005;-81
2021/06/25 12:40:04;;;;;;;;;;;;;;;;;;4975560;28;19921;-81
2021/06/25 12:42:31;;;;;;;;;;;;;;;;;;4975396;28;20020;-81
2021/06/25 12:44:58;;;;;;;;;;;;;;;;;;4975173;28;19925;-81
2021/06/25 12:47:34;;;;;;;;;;;;;;;;;;4974553;28;19980;-82
2021/06/25 12:50:01;;;;;;;;;;;;;;;;;;4992704;28;19922;-81
2021/06/25 12:52:28;;;;;;;;;;;;;;;;;;4992308;28;20099;-81
2021/06/25 12:54:57;;;;;;;;;;;;;;;;;;4974713;28;19932;-81
2021/06/25 12:57:24;;;;;;;;;;;;;;;;;;4992441;28;19969;-81
2021/06/25 12:59:52;;;;;;;;;;;;;;;;;;4992363;28;19953;-82
2021/06/25 13:02:20;;;;;;;;;;;;;;;;;;5017566;28;20014;-80
2021/06/25 13:04:47;;;;;;;;;;;;;;;;;;4974424;28;19979;-80
2021/06/25 13:07:14;;;;;;;;;;;;;;;;;;4991482;28;19921;-80
2021/06/25 13:09:41;;;;;;;;;;;;;;;;;;4974159;28;19972;-80
2021/06/25 13:12:09;;;;;;;;;;;;;;;;;;4991607;28;20016;-80
2021/06/25 13:14:36;;;;;;;;;;;;;;;;;;4991445;28;19957;-80
2021/06/25 13:17:03;;;;;;;;;;;;;;;;;;4974485;28;19984;-80
2021/06/25 13:19:30;;;;;;;;;;;;;;;;;;4991244;28;19973;-80
2021/06/25 13:21:57;;;;;;;;;;;;;;;;;;4972845;28;20657;-79
2021/06/25 13:24:24;;;;;;;;;;;;;;;;;;4999153;28;20016;-81
2021/06/25 13:26:51;;;;;;;;;;;;;;;;;;4975131;28;20008;-82
2021/06/25 13:29:18;;;;;;;;;;;;;;;;;;4991605;28;20502;-83
2021/06/25 13:31:46;;;;;;;;;;;;;;;;;;4976281;28;19925;-85
2021/06/25 13:34:13;;;;;;;;;;;;;;;;;;4986826;28;20020;-82
2021/06/25 13:36:40;;;;;;;;;;;;;;;;;;4972767;28;19957;-80
2021/06/25 13:39:08;;;;;;;;;;;;;;;;;;4997152;28;20024;-79
2021/06/25 13:44:07;;;;;;;;;;;;;;;;;;4995232;28;19922;-83
2021/06/25 13:46:40;;;;;;;;;;;;;;;;;;4983011;28;20017;-83
2021/06/25 13:49:13;;;;;;;;;;;;;;;;;;4969844;28;20012;-83
2021/06/25 13:51:40;;;;;;;;;;;;;;;;;;4978036;28;19926;-83
2021/06/25 13:54:08;;;;;;;;;;;;;;;;;;5002464;28;19971;-83
2021/06/25 13:56:39;;;;;;;;;;;;;;;;;;4999581;28;19926;-83
2021/06/25 13:59:11;;;;;;;;;;;;;;;;;;4977287;28;19930;-83
2021/06/25 14:01:40;;;;;;;;;;;;;;;;;;4979560;28;20032;-83
2021/06/25 14:04:08;;;;;;;;;;;;;;;;;;4982855;28;19925;-83
2021/06/25 14:06:36;;;;;;;;;;;;;;;;;;4983852;28;19925;-83
2021/06/25 14:09:09;;;;;;;;;;;;;;;;;;4975108;28;19956;-83
2021/06/25 14:11:36;;;;;;;;;;;;;;;;;;5003499;28;20036;-81
2021/06/25 14:14:08;;;;;;;;;;;;;;;;;;4979960;28;20336;-82
2021/06/25 14:16:37;;;;;;;;;;;;;;;;;;4973186;28;20001;-80
2021/06/25 14:19:04;;;;;;;;;;;;;;;;;;4992591;28;19979;-77
2021/06/25 14:21:35;;;;;;;;;;;;;;;;;;4993292;28;20743;-80
2021/06/25 14:24:02;;;;;;;;;;;;;;;;;;5006336;23;20373;-78
2021/06/25 14:26:30;;;;;;;;;;;;;;;;;;4944138;28;19988;-78
2021/06/25 14:28:58;;;;;;;;;;;;;;;;;;4940406;28;20651;-80
2021/06/25 14:31:25;;;;;;;;;;;;;;;;;;4948787;23;20013;-77
2021/06/25 14:33:53;;;;;;;;;;;;;;;;;;4928358;29;19934;-77
2021/06/25 14:36:23;;;;;;;;;;;;;;;;;;4940879;29;20013;-79
2021/06/25 14:38:51;;;;;;;;;;;;;;;;;;4941620;28;20017;-79
2021/06/25 14:41:18;;;;;;;;;;;;;;;;;;4937849;28;20318;-76
2021/06/25 14:43:45;;;;;;;;;;;;;;;;;;4922842;29;20030;-78
2021/06/25 14:46:14;;;;;;;;;;;;;;;;;;4934382;29;19961;-78
2021/06/25 14:48:41;;;;;;;;;;;;;;;;;;4948444;28;19926;-78
2021/06/25 14:51:08;;;;;;;;;;;;;;;;;;4944741;28;19972;-79
2021/06/25 14:53:35;;;;;;;;;;;;;;;;;;4934656;28;19933;-77
2021/06/25 14:56:03;;;;;;;;;;;;;;;;;;4917161;28;20025;-77
2021/06/25 14:58:30;;;;;;;;;;;;;;;;;;4927564;29;19969;-77
2021/06/25 15:00:57;;;;;;;;;;;;;;;;;;4928398;29;20932;-80
2021/06/25 15:03:25;;;;;;;;;;;;;;;;;;4941144;28;19977;-79
2021/06/25 15:05:52;;;;;;;;;;;;;;;;;;4931337;29;19958;-78
2021/06/25 15:08:20;;;;;;;;;;;;;;;;;;4927852;29;20025;-77
2021/06/25 15:10:47;;;;;;;;;;;;;;;;;;4927791;29;19997;-77
2021/06/25 15:13:15;;;;;;;;;;;;;;;;;;4954361;22;19932;-78
2021/06/25 15:15:44;;;;;;;;;;;;;;;;;;4984281;28;20020;-80
2021/06/25 15:18:13;;;;;;;;;;;;;;;;;;4986948;28;20009;-80
2021/06/25 15:20:40;;;;;;;;;;;;;;;;;;4988649;28;20012;-82
2021/06/25 15:23:07;;;;;;;;;;;;;;;;;;4989901;28;20053;-82
2021/06/25 15:25:37;;;;;;;;;;;;;;;;;;4990350;28;20417;-81
2021/06/25 15:28:04;;;;;;;;;;;;;;;;;;4982014;28;20020;-78
2021/06/25 15:30:35;;;;;;;;;;;;;;;;;;4992051;28;19957;-78
2021/06/25 15:33:02;;;;;;;;;;;;;;;;;;4968413;28;19936;-79
2021/06/25 15:35:31;;;;;;;;;;;;;;;;;;4989782;28;19995;-81
2021/06/25 15:38:00;;;;;;;;;;;;;;;;;;4987094;28;19925;-79
2021/06/25 15:40:27;;;;;;;;;;;;;;;;;;4982276;28;19925;-77
2021/06/25 15:42:56;;;;;;;;;;;;;;;;;;4990174;28;20033;-80
2021/06/25 15:45:23;;;;;;;;;;;;;;;;;;4986279;28;20008;-80
2021/06/25 15:47:50;;;;;;;;;;;;;;;;;;4970132;28;19929;-79
2021/06/25 15:50:19;;;;;;;;;;;;;;;;;;4973072;28;20600;-80
2021/06/25 15:52:48;;;;;;;;;;;;;;;;;;4986375;28;20335;-79
2021/06/25 15:55:15;;;;;;;;;;;;;;;;;;4983027;28;19949;-79
2021/06/25 15:57:42;;;;;;;;;;;;;;;;;;4990507;28;20008;-80
2021/06/25 16:00:09;;;;;;;;;;;;;;;;;;4969157;28;20024;-79
2021/06/25 16:02:36;;;;;;;;;;;;;;;;;;4986239;28;20363;-80
2021/06/25 16:05:05;;;;;;;;;;;;;;;;;;4968612;28;20032;-79
2021/06/25 16:07:33;;;;;;;;;;;;;;;;;;4987719;28;20025;-79
2021/06/25 16:10:02;;;;;;;;;;;;;;;;;;4987487;28;20007;-79
2021/06/25 16:12:29;;;;;;;;;;;;;;;;;;4985101;28;19964;-79
2021/06/25 16:18:06;;;;;;;;;;;;;;;;;;5061858;23;19950;-79
2021/06/25 16:20:34;;;;;;;;;;;;;;;;;;5051088;28;19924;-79
2021/06/25 16:23:01;;;;;;;;;;;;;;;;;;5049372;28;19925;-79
2021/06/25 16:25:28;;;;;;;;;;;;;;;;;;5082292;28;20027;-79
2021/06/25 16:27:56;;;;;;;;;;;;;;;;;;5064844;28;20019;-79
2021/06/25 16:30:23;;;;;;;;;;;;;;;;;;5064366;28;20043;-79
2021/06/25 16:35:42;;;;;;;;;;;;;;;;;;5055035;28;20457;-77
2021/06/25 16:38:09;;;;;;;;;;;;;;;;;;5062684;28;19976;-77
2021/06/25 16:40:36;;;;;;;;;;;;;;;;;;5063614;28;19924;-77
2021/06/25 16:43:03;;;;;;;;;;;;;;;;;;5056088;28;20709;-77
2021/06/25 16:45:30;;;;;;;;;;;;;;;;;;5050810;28;19925;-77
2021/06/25 16:47:58;;;;;;;;;;;;;;;;;;5072782;28;19932;-77
2021/06/25 16:50:25;;;;;;;;;;;;;;;;;;5059241;28;19935;-77
2021/06/25 16:52:52;;;;;;;;;;;;;;;;;;5057353;28;20051;-77
2021/06/25 16:55:19;;;;;;;;;;;;;;;;;;5055594;28;20559;-76
2021/06/25 16:57:59;;;;;;;;;;;;;;;;;;5055334;28;19928;-78
2021/06/25 17:00:28;;;;;;;;;;;;;;;;;;5057259;28;20392;-78
2021/06/25 17:02:55;;;;;;;;;;;;;;;;;;5056118;28;19920;-78
2021/06/25 17:05:23;;;;;;;;;;;;;;;;;;5055580;28;19924;-78
2021/06/25 17:07:50;;;;;;;;;;;;;;;;;;5057513;28;19942;-78
2021/06/25 17:10:17;;;;;;;;;;;;;;;;;;5059811;28;20001;-78
2021/06/25 17:12:45;;;;;;;;;;;;;;;;;;5060443;28;19924;-78
2021/06/25 17:15:16;;;;;;;;;;;;;;;;;;5058788;28;19928;-78
2021/06/25 17:17:44;;;;;;;;;;;;;;;;;;5057744;28;19930;-78
2021/06/25 17:20:12;;;;;;;;;;;;;;;;;;5063320;28;20016;-78